createdAt,value
2022-07-31T00:31:45.137Z,0
2022-07-31T00:32:25.772Z,0
2022-07-31T00:33:06.335Z,0
2022-07-31T00:38:30.120Z,0
2022-07-31T00:39:10.680Z,0
2022-07-31T00:39:51.076Z,0
2022-07-31T00:40:31.556Z,0
2022-07-31T00:41:12.125Z,0
2022-07-31T00:41:52.629Z,0
2022-07-31T00:42:33.145Z,0
2022-07-31T00:43:13.578Z,0
2022-07-31T00:43:54.052Z,0
2022-07-31T00:44:34.543Z,0
2022-07-31T00:51:59.843Z,0
2022-07-31T00:52:40.309Z,0
2022-07-31T00:53:20.798Z,0
2022-07-31T00:54:01.250Z,0
2022-07-31T00:54:41.742Z,0
2022-07-31T00:55:22.230Z,0
2022-07-31T00:56:02.729Z,0
2022-07-31T00:56:43.219Z,0
2022-07-31T00:57:23.630Z,0
2022-07-31T00:58:04.115Z,0
2022-07-31T00:58:44.628Z,0
2022-07-31T01:06:09.842Z,0
2022-07-31T01:06:50.311Z,0
2022-07-31T01:07:30.824Z,0
2022-07-31T01:08:11.282Z,0
2022-07-31T01:08:51.714Z,0
2022-07-31T01:09:32.212Z,0
2022-07-31T01:10:12.742Z,0
2022-07-31T01:10:53.227Z,0
2022-07-31T01:11:33.803Z,0
2022-07-31T01:12:14.285Z,0
2022-07-31T01:12:54.753Z,0
2022-07-31T01:20:20.111Z,0
2022-07-31T01:21:00.632Z,0
2022-07-31T01:21:41.038Z,0
2022-07-31T01:22:32.724Z,0
2022-07-31T01:23:02.024Z,0
2022-07-31T01:23:42.494Z,0
2022-07-31T01:25:03.389Z,0
2022-07-31T01:25:43.869Z,0
2022-07-31T01:26:24.383Z,0
2022-07-31T01:34:30.123Z,0
2022-07-31T01:35:10.558Z,0
2022-07-31T01:35:51.056Z,0
2022-07-31T01:36:31.586Z,0
2022-07-31T01:37:12.031Z,0
2022-07-31T01:37:52.513Z,0
2022-07-31T01:38:32.962Z,0
2022-07-31T01:39:13.429Z,0
2022-07-31T01:39:53.917Z,0
2022-07-31T01:40:34.379Z,0
2022-07-31T01:47:59.775Z,0
2022-07-31T01:48:40.197Z,0
2022-07-31T01:49:20.775Z,0
2022-07-31T01:50:01.128Z,0
2022-07-31T01:50:42.029Z,0
2022-07-31T01:51:22.134Z,0
2022-07-31T01:52:03.043Z,0
2022-07-31T01:53:23.542Z,0
2022-07-31T01:54:04.080Z,0
2022-07-31T01:54:44.547Z,0
2022-07-31T02:02:10.122Z,0
2022-07-31T02:02:50.366Z,0
2022-07-31T02:03:43.127Z,0
2022-07-31T02:04:11.268Z,0
2022-07-31T02:04:51.940Z,0
2022-07-31T02:05:32.319Z,0
2022-07-31T02:06:12.766Z,0
2022-07-31T02:06:53.241Z,0
2022-07-31T02:07:33.707Z,0
2022-07-31T02:08:14.197Z,0
2022-07-31T02:16:19.996Z,0
2022-07-31T02:17:00.489Z,0
2022-07-31T02:17:40.955Z,0
2022-07-31T02:18:21.423Z,0
2022-07-31T02:19:01.892Z,0
2022-07-31T02:20:00.031Z,0
2022-07-31T02:20:22.862Z,0
2022-07-31T02:21:03.319Z,0
2022-07-31T02:21:43.955Z,0
2022-07-31T02:25:22.880Z,0
2022-07-31T02:26:03.433Z,0
2022-07-31T02:26:43.842Z,0
2022-07-31T02:32:07.648Z,0
2022-07-31T02:32:48.109Z,0
2022-07-31T02:33:28.580Z,0
2022-07-31T02:34:09.041Z,0
2022-07-31T02:34:49.552Z,0
2022-07-31T02:35:30.015Z,0
2022-07-31T02:36:10.482Z,0
2022-07-31T02:36:50.943Z,0
2022-07-31T02:37:31.483Z,0
2022-07-31T02:38:13.550Z,0
2022-07-31T02:38:52.387Z,0
2022-07-31T02:46:17.592Z,0
2022-07-31T02:46:58.080Z,0
2022-07-31T02:47:38.566Z,0
2022-07-31T02:48:19.032Z,0
2022-07-31T02:48:59.578Z,0
2022-07-31T02:49:39.990Z,0
2022-07-31T02:50:20.619Z,0
2022-07-31T02:51:00.950Z,0
2022-07-31T02:51:42.941Z,0
2022-07-31T02:52:21.925Z,0
2022-07-31T02:53:02.408Z,0
2022-07-31T03:00:27.711Z,0
2022-07-31T03:01:08.150Z,0
2022-07-31T03:01:48.515Z,0
2022-07-31T03:02:34.530Z,0
2022-07-31T03:03:09.459Z,0
2022-07-31T03:03:49.932Z,0
2022-07-31T03:04:30.380Z,0
2022-07-31T03:05:10.888Z,0
2022-07-31T03:05:51.333Z,0
2022-07-31T03:06:31.785Z,0
2022-07-31T03:07:12.268Z,0
2022-07-31T03:13:57.686Z,0
2022-07-31T03:14:38.161Z,0
2022-07-31T03:15:18.665Z,0
2022-07-31T03:15:59.099Z,0
2022-07-31T03:16:39.680Z,0
2022-07-31T03:17:20.088Z,0
2022-07-31T03:18:00.523Z,0
2022-07-31T03:18:40.998Z,0
2022-07-31T03:19:21.472Z,0
2022-07-31T03:20:01.933Z,0
2022-07-31T03:20:42.426Z,0
2022-07-31T03:28:07.714Z,0
2022-07-31T03:28:48.239Z,0
2022-07-31T03:29:36.059Z,0
2022-07-31T03:30:09.173Z,0
2022-07-31T03:30:49.690Z,0
2022-07-31T03:31:30.064Z,0
2022-07-31T03:32:10.535Z,0
2022-07-31T03:32:51.010Z,0
2022-07-31T03:33:31.498Z,0
2022-07-31T03:34:11.980Z,0
2022-07-31T03:34:52.419Z,0
2022-07-31T03:42:18.462Z,0
2022-07-31T03:42:58.183Z,0
2022-07-31T03:43:43.978Z,0
2022-07-31T03:44:19.079Z,0
2022-07-31T03:44:59.541Z,0
2022-07-31T03:45:40.000Z,0
2022-07-31T03:47:00.930Z,0
2022-07-31T03:47:41.408Z,0
2022-07-31T03:48:21.854Z,0
2022-07-31T03:49:02.380Z,0
2022-07-31T03:56:27.566Z,0
2022-07-31T03:57:08.036Z,0
2022-07-31T03:57:48.495Z,0
2022-07-31T03:58:28.975Z,0
2022-07-31T03:59:09.446Z,0
2022-07-31T03:59:49.967Z,0
2022-07-31T04:00:30.385Z,0
2022-07-31T04:01:12.064Z,0
2022-07-31T04:01:57.010Z,0
2022-07-31T04:02:32.372Z,0
2022-07-31T04:03:12.213Z,0
2022-07-31T04:11:58.441Z,0
2022-07-31T04:12:38.941Z,0
2022-07-31T04:13:19.382Z,0
2022-07-31T04:13:59.896Z,0
2022-07-31T04:14:40.314Z,0
2022-07-31T04:15:20.797Z,0
2022-07-31T04:16:01.263Z,0
2022-07-31T04:16:41.740Z,0
2022-07-31T04:17:22.226Z,0
2022-07-31T04:25:27.975Z,0
2022-07-31T04:26:08.422Z,0
2022-07-31T04:26:48.900Z,0
2022-07-31T04:27:29.408Z,0
2022-07-31T04:28:09.891Z,0
2022-07-31T04:28:50.342Z,0
2022-07-31T04:29:30.796Z,0
2022-07-31T04:30:11.252Z,0
2022-07-31T04:30:51.728Z,0
2022-07-31T04:38:17.584Z,0
2022-07-31T04:38:58.072Z,0
2022-07-31T04:39:38.621Z,0
2022-07-31T04:40:19.061Z,0
2022-07-31T04:40:59.513Z,0
2022-07-31T04:41:39.968Z,0
2022-07-31T04:42:20.419Z,0
2022-07-31T04:43:00.885Z,0
2022-07-31T04:43:41.348Z,0
2022-07-31T04:44:21.812Z,0
2022-07-31T04:45:02.291Z,0
2022-07-31T04:52:27.541Z,5
2022-07-31T04:53:07.980Z,5
2022-07-31T04:53:48.483Z,5
2022-07-31T04:54:28.895Z,5
2022-07-31T04:55:09.370Z,5
2022-07-31T04:55:49.823Z,5
2022-07-31T04:56:30.335Z,5
2022-07-31T04:57:10.764Z,5
2022-07-31T04:57:51.264Z,5
2022-07-31T04:58:31.715Z,5
2022-07-31T04:59:12.178Z,5
2022-07-31T05:07:18.012Z,10
2022-07-31T05:07:58.577Z,10
2022-07-31T05:08:39.077Z,10
2022-07-31T05:09:19.680Z,10
2022-07-31T05:10:40.495Z,10
2022-07-31T05:11:20.988Z,10
2022-07-31T05:12:01.957Z,10
2022-07-31T05:12:42.009Z,10
2022-07-31T05:13:22.469Z,15
2022-07-31T05:20:47.898Z,20
2022-07-31T05:21:28.375Z,20
2022-07-31T05:22:09.320Z,20
2022-07-31T05:22:49.611Z,20
2022-07-31T05:23:30.051Z,20
2022-07-31T05:24:10.768Z,20
2022-07-31T05:25:31.642Z,20
2022-07-31T05:26:12.109Z,20
2022-07-31T05:26:52.556Z,20
2022-07-31T05:34:18.175Z,30
2022-07-31T05:34:58.682Z,30
2022-07-31T05:35:39.128Z,30
2022-07-31T05:36:19.737Z,30
2022-07-31T05:37:00.132Z,25
2022-07-31T05:37:40.625Z,25
2022-07-31T05:38:21.120Z,25
2022-07-31T05:39:01.578Z,25
2022-07-31T05:39:42.018Z,25
2022-07-31T05:40:22.538Z,25
2022-07-31T05:49:55.563Z,25
2022-07-31T05:50:36.016Z,30
2022-07-31T05:51:16.419Z,40
2022-07-31T06:32:00.496Z,30
2022-07-31T06:32:41.040Z,30
2022-07-31T06:33:36.883Z,30
2022-07-31T06:38:45.382Z,30
2022-07-31T06:39:28.043Z,25
2022-07-31T06:40:06.373Z,25
2022-07-31T06:40:46.903Z,25
2022-07-31T06:41:27.406Z,25
2022-07-31T06:42:07.868Z,25
2022-07-31T06:42:48.387Z,25
2022-07-31T06:43:28.952Z,25
2022-07-31T06:44:09.387Z,25
2022-07-31T06:44:49.840Z,25
2022-07-31T06:51:34.914Z,20
2022-07-31T06:52:15.375Z,20
2022-07-31T06:52:55.815Z,20
2022-07-31T06:53:36.356Z,20
2022-07-31T06:54:16.807Z,20
2022-07-31T06:54:57.306Z,20
2022-07-31T06:55:37.787Z,20
2022-07-31T06:56:18.257Z,20
2022-07-31T06:56:58.904Z,20
2022-07-31T06:57:39.289Z,20
2022-07-31T06:58:19.840Z,20
2022-07-31T07:05:45.564Z,20
2022-07-31T07:06:25.706Z,20
2022-07-31T07:07:06.239Z,20
2022-07-31T07:07:46.737Z,20
2022-07-31T07:08:27.310Z,20
2022-07-31T07:09:07.729Z,20
2022-07-31T07:09:48.199Z,20
2022-07-31T07:10:28.691Z,20
2022-07-31T07:11:12.219Z,20
2022-07-31T07:11:53.127Z,20
2022-07-31T07:16:04.092Z,20
2022-07-31T07:16:44.558Z,20
2022-07-31T07:17:28.934Z,20
2022-07-31T07:22:48.986Z,20
2022-07-31T07:23:29.492Z,15
2022-07-31T07:24:10.025Z,15
2022-07-31T07:24:50.508Z,15
2022-07-31T07:25:31.083Z,15
2022-07-31T07:26:11.512Z,15
2022-07-31T07:26:52.065Z,15
2022-07-31T07:27:33.388Z,15
2022-07-31T07:34:59.360Z,15
2022-07-31T07:35:39.331Z,15
2022-07-31T07:36:22.618Z,15
2022-07-31T07:37:00.347Z,15
2022-07-31T07:37:40.833Z,15
2022-07-31T07:38:21.330Z,15
2022-07-31T07:39:01.856Z,20
2022-07-31T07:39:42.353Z,20
2022-07-31T07:40:22.806Z,20
2022-07-31T07:41:03.316Z,20
2022-07-31T07:47:54.192Z,35
2022-07-31T07:48:29.177Z,40
2022-07-31T07:49:09.736Z,40
2022-07-31T07:49:50.196Z,45
2022-07-31T07:50:30.689Z,50
2022-07-31T07:51:11.170Z,50
2022-07-31T07:51:58.519Z,50
2022-07-31T07:52:32.220Z,55
2022-07-31T07:53:12.714Z,60
2022-07-31T07:53:53.177Z,65
2022-07-31T08:01:18.657Z,80
2022-07-31T08:01:59.107Z,80
2022-07-31T08:02:39.546Z,80
2022-07-31T08:03:47.747Z,75
2022-07-31T08:04:00.599Z,75
2022-07-31T08:04:43.612Z,75
2022-07-31T08:05:21.545Z,75
2022-07-31T08:06:02.035Z,75
2022-07-31T08:06:42.544Z,75
2022-07-31T08:07:23.023Z,75
2022-07-31T08:08:03.594Z,75
2022-07-31T08:15:28.899Z,90
2022-07-31T08:16:09.425Z,90
2022-07-31T08:16:49.943Z,95
2022-07-31T08:17:30.452Z,90
2022-07-31T08:18:10.902Z,90
2022-07-31T08:18:51.392Z,110
2022-07-31T08:19:32.146Z,90
2022-07-31T08:20:12.442Z,100
2022-07-31T08:20:53.017Z,90
2022-07-31T08:21:33.469Z,90
2022-07-31T08:28:58.912Z,90
2022-07-31T08:29:39.417Z,90
2022-07-31T08:30:19.915Z,85
2022-07-31T08:31:00.356Z,85
2022-07-31T08:31:40.887Z,85
2022-07-31T08:32:21.361Z,85
2022-07-31T08:33:01.878Z,90
2022-07-31T08:33:42.432Z,90
2022-07-31T08:34:31.130Z,85
2022-07-31T08:35:03.404Z,85
2022-07-31T08:42:28.989Z,95
2022-07-31T08:43:19.646Z,95
2022-07-31T08:44:01.171Z,95
2022-07-31T08:44:31.096Z,90
2022-07-31T08:45:10.958Z,85
2022-07-31T08:45:51.450Z,85
2022-07-31T08:46:31.985Z,90
2022-07-31T08:47:12.487Z,85
2022-07-31T08:48:33.589Z,90
2022-07-31T08:55:24.485Z,85
2022-07-31T08:55:59.210Z,80
2022-07-31T08:56:39.682Z,80
2022-07-31T08:57:20.166Z,80
2022-07-31T08:58:00.610Z,80
2022-07-31T08:58:41.098Z,80
2022-07-31T08:59:21.650Z,85
2022-07-31T09:00:02.200Z,90
2022-07-31T09:00:42.678Z,90
2022-07-31T09:01:23.174Z,80
2022-07-31T09:02:03.795Z,80
2022-07-31T09:08:48.643Z,60
2022-07-31T09:09:41.172Z,60
2022-07-31T09:10:09.697Z,55
2022-07-31T09:10:50.486Z,55
2022-07-31T09:11:30.610Z,55
2022-07-31T09:12:11.146Z,55
2022-07-31T09:12:51.769Z,55
2022-07-31T09:13:32.224Z,55
2022-07-31T09:14:12.664Z,55
2022-07-31T09:14:53.209Z,55
2022-07-31T09:22:18.738Z,60
2022-07-31T09:22:59.272Z,60
2022-07-31T09:23:39.826Z,60
2022-07-31T09:24:20.272Z,65
2022-07-31T09:25:00.798Z,60
2022-07-31T09:25:41.306Z,60
2022-07-31T09:26:21.780Z,60
2022-07-31T09:27:02.700Z,60
2022-07-31T09:27:42.854Z,60
2022-07-31T09:28:25.151Z,60
2022-07-31T09:35:48.937Z,45
2022-07-31T09:36:29.480Z,40
2022-07-31T09:37:09.928Z,40
2022-07-31T09:37:50.667Z,40
2022-07-31T09:38:31.070Z,40
2022-07-31T09:39:11.514Z,40
2022-07-31T09:39:52.724Z,40
2022-07-31T09:40:32.483Z,40
2022-07-31T09:41:16.620Z,40
2022-07-31T09:41:56.121Z,45
2022-07-31T09:48:38.716Z,45
2022-07-31T09:49:19.263Z,45
2022-07-31T09:49:59.734Z,50
2022-07-31T09:50:40.379Z,50
2022-07-31T09:51:20.858Z,50
2022-07-31T09:52:01.329Z,55
2022-07-31T09:52:41.819Z,55
2022-07-31T09:53:22.390Z,55
2022-07-31T09:54:02.843Z,65
2022-07-31T10:02:09.075Z,80
2022-07-31T10:02:49.610Z,80
2022-07-31T10:03:30.048Z,75
2022-07-31T10:04:10.599Z,75
2022-07-31T10:05:31.612Z,70
2022-07-31T10:06:14.688Z,70
2022-07-31T10:06:52.596Z,75
2022-07-31T10:07:33.141Z,75
2022-07-31T10:08:13.585Z,75
2022-07-31T10:14:58.860Z,65
2022-07-31T10:15:39.346Z,60
2022-07-31T10:16:19.847Z,60
2022-07-31T10:17:00.344Z,60
2022-07-31T10:17:40.912Z,55
2022-07-31T10:18:35.490Z,55
2022-07-31T10:19:01.943Z,60
2022-07-31T10:19:42.390Z,55
2022-07-31T10:20:22.866Z,60
2022-07-31T10:21:03.309Z,60
2022-07-31T10:28:28.897Z,65
2022-07-31T10:29:09.527Z,60
2022-07-31T10:29:50.038Z,60
2022-07-31T10:30:30.491Z,60
2022-07-31T10:31:10.957Z,65
2022-07-31T10:31:51.621Z,65
2022-07-31T10:32:32.161Z,70
2022-07-31T10:33:28.119Z,75
2022-07-31T10:33:53.253Z,70
2022-07-31T10:41:18.925Z,70
2022-07-31T10:41:59.581Z,65
2022-07-31T10:42:40.104Z,65
2022-07-31T10:43:20.559Z,70
2022-07-31T10:44:01.001Z,65
2022-07-31T10:44:41.458Z,60
2022-07-31T10:45:21.955Z,70
2022-07-31T10:46:02.459Z,65
2022-07-31T10:53:34.569Z,60
2022-07-31T10:54:09.263Z,55
2022-07-31T10:54:49.791Z,55
2022-07-31T10:55:30.280Z,60
2022-07-31T10:56:10.720Z,55
2022-07-31T10:56:51.183Z,65
2022-07-31T10:57:31.680Z,60
2022-07-31T10:58:12.190Z,70
2022-07-31T10:58:52.679Z,75
2022-07-31T11:06:58.838Z,50
2022-07-31T11:07:39.393Z,55
2022-07-31T11:08:19.945Z,50
2022-07-31T11:09:00.418Z,45
2022-07-31T11:09:45.403Z,60
2022-07-31T11:10:21.457Z,55
2022-07-31T11:11:03.527Z,50
2022-07-31T11:11:42.408Z,45
2022-07-31T11:13:03.419Z,45
2022-07-31T11:20:29.125Z,70
2022-07-31T11:21:29.075Z,70
2022-07-31T11:21:50.205Z,70
2022-07-31T11:22:32.750Z,50
2022-07-31T11:23:11.134Z,70
2022-07-31T11:23:55.819Z,60
2022-07-31T11:24:32.133Z,70
2022-07-31T11:25:12.653Z,70
2022-07-31T11:34:11.099Z,55
2022-07-31T11:34:51.280Z,50
2022-07-31T11:35:31.800Z,45
2022-07-31T11:37:46.748Z,50
2022-07-31T11:38:13.968Z,50
2022-07-31T11:38:54.503Z,50
2022-07-31T11:39:37.067Z,50
2022-07-31T11:40:15.465Z,55
2022-07-31T11:40:56.040Z,60
2022-07-31T11:41:38.101Z,60
2022-07-31T11:42:17.051Z,75
2022-07-31T11:43:24.602Z,65
2022-07-31T11:43:38.024Z,75
2022-07-31T11:51:03.525Z,65
2022-07-31T11:51:44.037Z,65
2022-07-31T11:52:30.532Z,65
2022-07-31T11:53:05.029Z,65
2022-07-31T12:32:40.743Z,50
2022-07-31T12:33:21.171Z,50
2022-07-31T12:34:01.612Z,50
2022-07-31T12:39:25.525Z,55
2022-07-31T12:40:06.017Z,55
2022-07-31T12:40:46.514Z,60
2022-07-31T12:41:27.043Z,50
2022-07-31T12:42:07.481Z,50
2022-07-31T12:42:47.984Z,50
2022-07-31T12:43:28.511Z,65
2022-07-31T12:44:08.967Z,60
2022-07-31T12:44:49.514Z,60
2022-07-31T12:45:29.981Z,65
2022-07-31T12:52:15.610Z,45
2022-07-31T12:52:56.156Z,50
2022-07-31T12:53:36.606Z,45
2022-07-31T12:54:17.136Z,45
2022-07-31T12:54:57.573Z,45
2022-07-31T12:55:38.047Z,45
2022-07-31T12:56:18.564Z,45
2022-07-31T12:56:59.039Z,40
2022-07-31T12:57:41.723Z,40
2022-07-31T12:58:20.102Z,40
2022-07-31T13:05:05.283Z,50
2022-07-31T13:05:49.182Z,45
2022-07-31T13:06:26.331Z,60
2022-07-31T13:07:07.224Z,45
2022-07-31T13:07:47.346Z,45
2022-07-31T13:08:27.792Z,45
2022-07-31T13:09:08.336Z,45
2022-07-31T13:10:32.141Z,45
2022-07-31T13:11:09.989Z,45
2022-07-31T13:17:55.165Z,45
2022-07-31T13:18:35.850Z,55
2022-07-31T13:19:16.346Z,50
2022-07-31T13:19:56.893Z,50
2022-07-31T13:20:37.490Z,55
2022-07-31T13:21:18.119Z,55
2022-07-31T13:21:58.501Z,55
2022-07-31T13:22:39.012Z,65
2022-07-31T13:23:19.543Z,50
2022-07-31T13:24:00.026Z,50
2022-07-31T13:30:45.310Z,45
2022-07-31T13:31:25.856Z,45
2022-07-31T13:32:06.314Z,45
2022-07-31T13:32:46.813Z,45
2022-07-31T13:33:27.304Z,45
2022-07-31T13:34:07.788Z,45
2022-07-31T13:34:48.288Z,45
2022-07-31T13:35:29.274Z,45
2022-07-31T13:42:55.350Z,40
2022-07-31T13:43:35.883Z,40
2022-07-31T13:44:16.716Z,40
2022-07-31T13:44:59.648Z,40
2022-07-31T13:45:37.534Z,40
2022-07-31T13:46:18.073Z,40
2022-07-31T13:46:58.583Z,40
2022-07-31T13:47:50.362Z,40
2022-07-31T13:48:19.649Z,40
2022-07-31T13:49:01.953Z,35
2022-07-31T13:55:49.778Z,35
2022-07-31T13:56:36.888Z,35
2022-07-31T13:57:06.349Z,35
2022-07-31T13:57:46.918Z,35
2022-07-31T13:58:27.423Z,35
2022-07-31T13:59:07.935Z,35
2022-07-31T13:59:48.407Z,35
2022-07-31T14:00:29.246Z,35
2022-07-31T14:01:09.726Z,40
2022-07-31T14:02:02.426Z,40
2022-07-31T14:07:40.459Z,35
2022-07-31T14:08:30.282Z,35
2022-07-31T14:08:50.094Z,35
2022-07-31T14:12:23.995Z,30
2022-07-31T14:13:04.508Z,30
2022-07-31T14:13:45.199Z,30
2022-07-31T14:14:26.628Z,30
2022-07-31T14:17:09.720Z,30
2022-07-31T14:17:50.922Z,30
2022-07-31T14:18:31.134Z,35
2022-07-31T14:19:11.929Z,35
2022-07-31T14:22:54.309Z,30
2022-07-31T14:23:38.881Z,30
2022-07-31T14:24:16.311Z,30
2022-07-31T14:24:57.299Z,30
2022-07-31T14:25:38.364Z,30
2022-07-31T14:26:19.306Z,30
2022-07-31T14:27:00.283Z,30
2022-07-31T14:27:41.321Z,35
2022-07-31T14:31:06.842Z,35
2022-07-31T14:31:47.930Z,35
2022-07-31T14:32:29.057Z,35
2022-07-31T14:33:10.164Z,35
2022-07-31T14:33:51.142Z,35
2022-07-31T14:37:16.746Z,35
2022-07-31T14:37:59.930Z,40
2022-07-31T14:38:39.051Z,40
2022-07-31T14:39:20.580Z,40
2022-07-31T14:40:01.888Z,40
2022-07-31T14:43:27.629Z,35
2022-07-31T14:44:08.700Z,35
2022-07-31T14:44:49.730Z,35
2022-07-31T14:45:30.707Z,35
2022-07-31T14:46:11.647Z,35
2022-07-31T14:50:06.249Z,35
2022-07-31T14:50:19.598Z,35
2022-07-31T14:50:59.588Z,35
2022-07-31T14:51:40.595Z,35
2022-07-31T14:52:21.686Z,35
2022-07-31T14:56:51.680Z,40
2022-07-31T14:57:08.736Z,40
2022-07-31T14:57:49.740Z,40
2022-07-31T14:58:30.745Z,40
2022-07-31T14:59:11.710Z,40
2022-07-31T15:02:37.007Z,40
2022-07-31T15:03:18.029Z,35
2022-07-31T15:03:59.000Z,35
2022-07-31T15:04:40.128Z,35
2022-07-31T15:06:37.178Z,30
2022-07-31T15:08:46.966Z,40
2022-07-31T15:09:27.984Z,40
2022-07-31T15:10:09.127Z,40
2022-07-31T15:10:49.929Z,40
2022-07-31T15:11:34.046Z,45
2022-07-31T15:14:57.536Z,45
2022-07-31T15:15:38.499Z,40
2022-07-31T15:16:19.583Z,40
2022-07-31T15:17:00.611Z,35
2022-07-31T15:17:41.666Z,35
2022-07-31T15:21:06.713Z,40
2022-07-31T15:22:09.621Z,40
2022-07-31T15:22:28.639Z,40
2022-07-31T15:23:09.689Z,40
2022-07-31T15:24:31.722Z,40
2022-07-31T15:28:39.495Z,40
2022-07-31T15:29:21.481Z,35
2022-07-31T15:32:46.792Z,35
2022-07-31T15:33:27.722Z,35
2022-07-31T15:34:09.139Z,40
2022-07-31T15:34:50.402Z,40
2022-07-31T15:35:31.350Z,40
2022-07-31T15:38:56.791Z,35
2022-07-31T15:39:37.822Z,35
2022-07-31T15:40:18.829Z,30
2022-07-31T15:40:59.834Z,30
2022-07-31T15:41:40.719Z,30
2022-07-31T15:42:23.259Z,30
2022-07-31T15:45:47.089Z,30
2022-07-31T15:46:28.154Z,30
2022-07-31T15:47:09.987Z,30
2022-07-31T15:47:51.103Z,30
2022-07-31T15:53:08.406Z,30
2022-07-31T15:53:48.733Z,30
2022-07-31T15:54:29.212Z,30
2022-07-31T15:59:54.590Z,30
2022-07-31T16:00:33.942Z,30
2022-07-31T16:01:14.501Z,25
2022-07-31T16:01:54.946Z,25
2022-07-31T16:02:35.564Z,25
2022-07-31T16:03:17.829Z,30
2022-07-31T16:03:57.456Z,30
2022-07-31T16:10:43.472Z,30
2022-07-31T16:11:23.930Z,25
2022-07-31T16:12:05.817Z,25
2022-07-31T16:12:45.524Z,25
2022-07-31T16:13:26.027Z,25
2022-07-31T16:14:06.611Z,35
2022-07-31T16:17:45.791Z,25
2022-07-31T16:18:28.127Z,25
2022-07-31T16:19:09.270Z,25
2022-07-31T16:20:30.906Z,25
2022-07-31T16:21:11.467Z,20
2022-07-31T16:21:52.291Z,20
2022-07-31T16:22:33.419Z,20
2022-07-31T16:23:14.220Z,20
2022-07-31T16:28:00.995Z,20
2022-07-31T16:31:29.899Z,20
2022-07-31T16:32:02.231Z,20
2022-07-31T16:32:42.732Z,20
2022-07-31T16:36:45.801Z,20
2022-07-31T16:37:50.692Z,20
2022-07-31T16:38:06.769Z,15
2022-07-31T16:38:59.595Z,15
2022-07-31T16:39:27.793Z,15
2022-07-31T16:40:08.275Z,15
2022-07-31T16:40:53.146Z,15
2022-07-31T16:41:29.351Z,15
2022-07-31T16:42:09.878Z,15
2022-07-31T16:42:50.367Z,15
2022-07-31T16:50:15.889Z,20
2022-07-31T16:50:56.361Z,20
2022-07-31T16:51:36.857Z,20
2022-07-31T16:52:17.368Z,20
2022-07-31T16:52:58.123Z,20
2022-07-31T16:54:11.821Z,20
2022-07-31T16:54:19.058Z,20
2022-07-31T16:54:59.814Z,20
2022-07-31T16:55:46.029Z,20
2022-07-31T17:03:05.665Z,20
2022-07-31T17:03:59.766Z,20
2022-07-31T17:04:26.710Z,20
2022-07-31T17:05:07.185Z,20
2022-07-31T17:05:47.689Z,20
2022-07-31T17:06:34.578Z,20
2022-07-31T17:07:08.810Z,20
2022-07-31T17:07:49.318Z,25
2022-07-31T17:08:29.821Z,25
2022-07-31T17:09:15.712Z,20
2022-07-31T17:15:55.573Z,15
2022-07-31T17:16:36.210Z,15
2022-07-31T17:17:16.610Z,15
2022-07-31T17:17:57.090Z,15
2022-07-31T17:18:37.604Z,15
2022-07-31T17:19:36.332Z,15
2022-07-31T17:19:58.601Z,15
2022-07-31T17:20:39.094Z,15
2022-07-31T17:21:19.605Z,15
2022-07-31T17:22:00.116Z,15
2022-07-31T17:28:45.730Z,15
2022-07-31T17:29:26.258Z,15
2022-07-31T17:30:06.712Z,15
2022-07-31T17:30:47.229Z,15
2022-07-31T17:31:27.756Z,15
2022-07-31T17:32:08.264Z,15
2022-07-31T17:32:48.737Z,15
2022-07-31T17:33:54.498Z,20
2022-07-31T17:34:09.765Z,15
2022-07-31T17:34:50.222Z,15
2022-07-31T17:40:55.526Z,10
2022-07-31T17:41:35.970Z,10
2022-07-31T17:42:17.913Z,10
2022-07-31T17:42:56.959Z,10
2022-07-31T17:43:39.206Z,10
2022-07-31T17:44:17.956Z,10
2022-07-31T17:44:58.420Z,10
2022-07-31T17:45:50.774Z,10
2022-07-31T17:46:21.914Z,10
2022-07-31T17:47:00.177Z,10
2022-07-31T18:34:47.119Z,0
2022-07-31T18:35:27.721Z,5
2022-07-31T18:36:08.203Z,5
2022-07-31T18:36:51.599Z,5
2022-07-31T18:39:32.042Z,5
2022-07-31T18:40:12.476Z,5
2022-07-31T18:40:53.939Z,5
2022-07-31T18:41:34.521Z,5
2022-07-31T18:42:15.321Z,5
2022-07-31T18:42:55.987Z,5
2022-07-31T18:49:01.823Z,0
2022-07-31T18:50:57.381Z,0
2022-07-31T18:50:57.713Z,0
2022-07-31T18:51:04.698Z,0
2022-07-31T18:51:43.827Z,0
2022-07-31T18:52:24.311Z,0
2022-07-31T18:53:04.786Z,0
2022-07-31T18:53:45.313Z,0
2022-07-31T18:54:25.794Z,0
2022-07-31T18:55:06.312Z,0
2022-07-31T19:01:11.553Z,0
2022-07-31T19:01:52.187Z,0
2022-07-31T19:02:32.679Z,0
2022-07-31T19:03:13.122Z,0
2022-07-31T19:03:53.601Z,0
2022-07-31T19:04:34.082Z,0
2022-07-31T19:05:14.990Z,0
2022-07-31T19:05:55.196Z,0
2022-07-31T19:06:35.688Z,0
2022-07-31T19:07:16.398Z,0
2022-07-31T19:12:07.626Z,0
2022-07-31T19:12:43.155Z,0
2022-07-31T19:13:24.053Z,0
2022-07-31T19:14:04.772Z,0
2022-07-31T19:14:45.483Z,0
2022-07-31T19:15:26.096Z,0
2022-07-31T19:16:06.571Z,0
2022-07-31T19:21:41.747Z,0
2022-07-31T19:22:12.234Z,0
2022-07-31T19:22:52.816Z,0
2022-07-31T19:23:33.332Z,0
2022-07-31T19:24:14.186Z,0
2022-07-31T19:24:55.511Z,0
2022-07-31T19:25:53.983Z,0
2022-07-31T19:26:16.642Z,0
2022-07-31T19:33:02.372Z,0
2022-07-31T19:33:42.737Z,0
2022-07-31T19:34:23.145Z,0
2022-07-31T19:35:03.698Z,0
2022-07-31T19:35:55.616Z,0
2022-07-31T19:36:24.869Z,0
2022-07-31T19:37:05.345Z,0
2022-07-31T19:37:45.805Z,0
2022-07-31T19:38:26.602Z,0
2022-07-31T19:44:31.593Z,0
2022-07-31T19:45:12.140Z,0
2022-07-31T19:45:57.762Z,0
2022-07-31T19:49:36.471Z,0
2022-07-31T19:50:13.533Z,0
2022-07-31T19:50:54.321Z,0
2022-07-31T19:54:17.352Z,0
2022-07-31T19:54:57.837Z,0
2022-07-31T19:55:38.329Z,0
2022-07-31T19:56:20.892Z,0
2022-07-31T19:56:59.285Z,0
2022-07-31T19:57:39.926Z,0
2022-07-31T19:58:20.381Z,0
2022-07-31T19:59:00.845Z,0
2022-07-31T19:59:41.336Z,0
2022-07-31T20:05:47.625Z,0
2022-07-31T20:06:28.170Z,0
2022-07-31T20:07:08.564Z,0
2022-07-31T20:08:30.966Z,0
2022-07-31T20:09:10.640Z,0
2022-07-31T20:09:51.335Z,0
2022-07-31T20:10:31.697Z,0
2022-07-31T20:15:17.183Z,0
2022-07-31T20:15:57.709Z,0
2022-07-31T20:16:38.107Z,0
2022-07-31T20:20:18.595Z,0
2022-07-31T20:20:59.901Z,0
2022-07-31T20:21:40.976Z,0
2022-07-31T20:23:03.339Z,0
2022-07-31T20:23:44.614Z,0
2022-07-31T20:24:25.186Z,0
2022-07-31T20:25:12.145Z,0
2022-07-31T20:28:45.934Z,0
2022-07-31T20:29:26.554Z,0
2022-07-31T20:30:07.082Z,0
2022-07-31T20:34:10.572Z,0
2022-07-31T20:34:51.066Z,0
2022-07-31T20:35:47.377Z,0
2022-07-31T20:36:13.700Z,0
2022-07-31T20:36:53.504Z,0
2022-07-31T20:37:33.920Z,0
2022-07-31T20:38:15.607Z,0
2022-07-31T20:46:20.692Z,0
2022-07-31T20:47:01.312Z,0
2022-07-31T20:47:41.921Z,0
2022-07-31T20:48:22.335Z,0
2022-07-31T20:49:02.895Z,0
2022-07-31T20:49:43.643Z,0
2022-07-31T20:50:24.147Z,0
2022-07-31T20:53:53.338Z,0
2022-07-31T20:54:34.288Z,0
2022-07-31T20:55:14.264Z,0
2022-07-31T20:59:17.698Z,0
2022-07-31T20:59:58.163Z,0
2022-07-31T21:00:38.646Z,0
2022-07-31T21:01:19.447Z,0
2022-07-31T21:02:00.019Z,0
2022-07-31T21:02:40.470Z,0
2022-07-31T21:03:20.901Z,0
2022-07-31T21:04:01.433Z,0
2022-07-31T21:04:41.908Z,0
2022-07-31T21:05:27.048Z,0
2022-07-31T21:08:07.840Z,0
2022-07-31T21:08:48.274Z,0
2022-07-31T21:09:28.788Z,0
2022-07-31T21:10:09.382Z,0
2022-07-31T21:13:48.792Z,0
2022-07-31T21:14:29.260Z,0
2022-07-31T21:15:28.509Z,0
2022-07-31T21:19:19.507Z,0
2022-07-31T21:19:59.958Z,0
2022-07-31T21:20:49.036Z,0
2022-07-31T21:21:21.231Z,0
2022-07-31T21:25:24.458Z,0
2022-07-31T21:26:04.966Z,0
2022-07-31T21:26:45.548Z,0
2022-07-31T21:27:26.083Z,0
2022-07-31T21:28:06.630Z,0
2022-07-31T21:28:47.029Z,0
2022-07-31T21:29:27.671Z,0
2022-07-31T21:30:08.200Z,0
2022-07-31T21:30:48.645Z,0
2022-07-31T21:31:29.158Z,0
2022-07-31T21:38:14.315Z,0
2022-07-31T21:38:54.812Z,0
2022-07-31T21:39:35.293Z,0
2022-07-31T21:40:15.801Z,0
2022-07-31T21:40:56.290Z,0
2022-07-31T21:41:36.792Z,0
2022-07-31T21:42:18.681Z,0
2022-07-31T21:47:52.254Z,0
2022-07-31T21:48:31.994Z,0
2022-07-31T21:49:12.742Z,0
2022-07-31T21:53:15.674Z,0
2022-07-31T21:53:56.132Z,0
2022-07-31T21:54:36.603Z,0
2022-07-31T21:55:17.187Z,0
2022-07-31T21:55:57.642Z,0
2022-07-31T21:56:38.133Z,0
2022-07-31T21:57:18.733Z,0
2022-07-31T21:58:00.099Z,0
2022-07-31T21:58:39.686Z,0
2022-07-31T22:00:00.707Z,0
2022-07-31T22:06:05.894Z,0
2022-07-31T22:06:46.354Z,0
2022-07-31T22:07:26.841Z,0
2022-07-31T22:08:07.357Z,0
2022-07-31T22:08:48.944Z,0
2022-07-31T22:09:29.751Z,0
2022-07-31T22:10:10.166Z,0